sensor_id;sensor_type;location;lat;lon;timestamp;P1;durP1;ratioP1;P2;durP2;ratioP2
22388;SDS011;11362;48.102;11.620;2022-12-18T00:02:15;9.43;;;7.00;;
22388;SDS011;11362;48.102;11.620;2022-12-18T00:04:41;7.50;;;5.73;;
22388;SDS011;11362;48.102;11.620;2022-12-18T00:07:06;12.93;;;6.40;;
22388;SDS011;11362;48.102;11.620;2022-12-18T00:09:31;8.27;;;6.10;;
22388;SDS011;11362;48.102;11.620;2022-12-18T00:11:56;6.90;;;6.07;;
22388;SDS011;11362;48.102;11.620;2022-12-18T00:14:22;7.10;;;5.53;;
22388;SDS011;11362;48.102;11.620;2022-12-18T00:16:47;6.80;;;5.43;;
22388;SDS011;11362;48.102;11.620;2022-12-18T00:19:13;6.53;;;5.60;;
22388;SDS011;11362;48.102;11.620;2022-12-18T00:21:39;6.37;;;4.70;;
22388;SDS011;11362;48.102;11.620;2022-12-18T00:24:04;6.40;;;5.33;;
22388;SDS011;11362;48.102;11.620;2022-12-18T00:26:31;6.03;;;5.10;;
22388;SDS011;11362;48.102;11.620;2022-12-18T00:29:16;6.27;;;4.67;;
22388;SDS011;11362;48.102;11.620;2022-12-18T00:31:42;6.50;;;5.13;;
22388;SDS011;11362;48.102;11.620;2022-12-18T00:34:09;6.57;;;5.47;;
22388;SDS011;11362;48.102;11.620;2022-12-18T00:36:35;6.33;;;5.23;;
22388;SDS011;11362;48.102;11.620;2022-12-18T00:39:02;5.50;;;4.57;;
22388;SDS011;11362;48.102;11.620;2022-12-18T00:41:28;8.30;;;5.47;;
22388;SDS011;11362;48.102;11.620;2022-12-18T00:43:54;5.73;;;4.90;;
22388;SDS011;11362;48.102;11.620;2022-12-18T00:46:19;7.00;;;5.23;;
22388;SDS011;11362;48.102;11.620;2022-12-18T00:48:44;5.47;;;4.40;;
22388;SDS011;11362;48.102;11.620;2022-12-18T00:51:09;5.30;;;4.77;;
22388;SDS011;11362;48.102;11.620;2022-12-18T00:53:35;5.40;;;4.83;;
22388;SDS011;11362;48.102;11.620;2022-12-18T00:56:00;7.13;;;4.40;;
22388;SDS011;11362;48.102;11.620;2022-12-18T00:58:25;6.30;;;5.10;;
22388;SDS011;11362;48.102;11.620;2022-12-18T01:00:51;5.83;;;5.23;;
22388;SDS011;11362;48.102;11.620;2022-12-18T01:03:16;5.23;;;4.73;;
22388;SDS011;11362;48.102;11.620;2022-12-18T01:05:41;5.30;;;4.80;;
22388;SDS011;11362;48.102;11.620;2022-12-18T01:08:07;6.53;;;5.17;;
22388;SDS011;11362;48.102;11.620;2022-12-18T01:10:32;4.93;;;4.50;;
22388;SDS011;11362;48.102;11.620;2022-12-18T01:12:57;4.53;;;4.13;;
22388;SDS011;11362;48.102;11.620;2022-12-18T01:15:23;5.57;;;4.97;;
22388;SDS011;11362;48.102;11.620;2022-12-18T01:17:48;5.37;;;4.30;;
22388;SDS011;11362;48.102;11.620;2022-12-18T01:20:13;5.40;;;4.90;;
22388;SDS011;11362;48.102;11.620;2022-12-18T01:22:39;4.53;;;4.17;;
22388;SDS011;11362;48.102;11.620;2022-12-18T01:25:04;4.73;;;4.33;;
22388;SDS011;11362;48.102;11.620;2022-12-18T01:27:30;4.57;;;3.97;;
22388;SDS011;11362;48.102;11.620;2022-12-18T01:29:56;4.37;;;4.07;;
22388;SDS011;11362;48.102;11.620;2022-12-18T01:32:21;4.10;;;3.80;;
22388;SDS011;11362;48.102;11.620;2022-12-18T01:34:47;4.87;;;4.47;;
22388;SDS011;11362;48.102;11.620;2022-12-18T01:37:12;4.30;;;4.00;;
22388;SDS011;11362;48.102;11.620;2022-12-18T01:39:38;4.70;;;4.17;;
22388;SDS011;11362;48.102;11.620;2022-12-18T01:42:05;5.77;;;5.17;;
22388;SDS011;11362;48.102;11.620;2022-12-18T01:47:30;4.80;;;4.40;;
22388;SDS011;11362;48.102;11.620;2022-12-18T01:49:57;5.70;;;4.47;;
22388;SDS011;11362;48.102;11.620;2022-12-18T01:52:26;5.37;;;4.87;;
22388;SDS011;11362;48.102;11.620;2022-12-18T01:54:55;4.70;;;4.30;;
22388;SDS011;11362;48.102;11.620;2022-12-18T01:57:22;5.00;;;4.60;;
22388;SDS011;11362;48.102;11.620;2022-12-18T01:59:49;4.70;;;4.10;;
22388;SDS011;11362;48.102;11.620;2022-12-18T02:02:17;5.27;;;4.87;;
22388;SDS011;11362;48.102;11.620;2022-12-18T02:04:43;4.90;;;4.40;;
22388;SDS011;11362;48.102;11.620;2022-12-18T02:10:03;4.93;;;4.53;;
22388;SDS011;11362;48.102;11.620;2022-12-18T02:12:35;4.23;;;3.93;;
22388;SDS011;11362;48.102;11.620;2022-12-18T02:15:12;4.90;;;4.50;;
22388;SDS011;11362;48.102;11.620;2022-12-18T02:20:32;4.53;;;4.13;;
22388;SDS011;11362;48.102;11.620;2022-12-18T02:23:06;5.97;;;5.00;;
22388;SDS011;11362;48.102;11.620;2022-12-18T02:28:45;5.30;;;4.80;;
22388;SDS011;11362;48.102;11.620;2022-12-18T02:31:17;4.50;;;4.20;;
22388;SDS011;11362;48.102;11.620;2022-12-18T02:33:53;5.17;;;4.10;;
22388;SDS011;11362;48.102;11.620;2022-12-18T02:36:25;4.70;;;4.30;;
22388;SDS011;11362;48.102;11.620;2022-12-18T02:38:52;4.50;;;4.10;;
22388;SDS011;11362;48.102;11.620;2022-12-18T02:41:20;5.07;;;4.67;;
22388;SDS011;11362;48.102;11.620;2022-12-18T02:44:00;4.27;;;3.97;;
22388;SDS011;11362;48.102;11.620;2022-12-18T02:46:28;4.80;;;4.40;;
22388;SDS011;11362;48.102;11.620;2022-12-18T02:49:06;5.37;;;4.87;;
22388;SDS011;11362;48.102;11.620;2022-12-18T02:54:23;5.10;;;4.70;;
22388;SDS011;11362;48.102;11.620;2022-12-18T02:57:53;4.60;;;4.20;;
22388;SDS011;11362;48.102;11.620;2022-12-18T03:00:04;4.53;;;4.23;;
22388;SDS011;11362;48.102;11.620;2022-12-18T03:05:21;4.43;;;4.10;;
22388;SDS011;11362;48.102;11.620;2022-12-18T03:07:56;4.57;;;4.27;;
22388;SDS011;11362;48.102;11.620;2022-12-18T03:10:25;4.60;;;4.13;;
22388;SDS011;11362;48.102;11.620;2022-12-18T03:12:55;5.13;;;4.73;;
22388;SDS011;11362;48.102;11.620;2022-12-18T03:15:45;4.83;;;4.43;;
22388;SDS011;11362;48.102;11.620;2022-12-18T03:18:17;4.13;;;3.83;;
22388;SDS011;11362;48.102;11.620;2022-12-18T03:20:47;5.80;;;5.20;;
22388;SDS011;11362;48.102;11.620;2022-12-18T03:23:18;5.03;;;4.63;;
22388;SDS011;11362;48.102;11.620;2022-12-18T03:25:46;4.13;;;3.83;;
22388;SDS011;11362;48.102;11.620;2022-12-18T03:28:16;4.63;;;4.23;;
22388;SDS011;11362;48.102;11.620;2022-12-18T03:30:46;4.63;;;4.23;;
22388;SDS011;11362;48.102;11.620;2022-12-18T03:35:51;5.30;;;4.80;;
22388;SDS011;11362;48.102;11.620;2022-12-18T03:38:16;4.50;;;4.17;;
22388;SDS011;11362;48.102;11.620;2022-12-18T03:40:50;5.03;;;4.63;;
22388;SDS011;11362;48.102;11.620;2022-12-18T03:43:28;4.53;;;4.23;;
22388;SDS011;11362;48.102;11.620;2022-12-18T03:46:12;5.00;;;4.60;;
22388;SDS011;11362;48.102;11.620;2022-12-18T03:49:01;4.40;;;4.10;;
22388;SDS011;11362;48.102;11.620;2022-12-18T03:51:57;4.03;;;3.73;;
22388;SDS011;11362;48.102;11.620;2022-12-18T03:54:29;4.40;;;3.93;;
22388;SDS011;11362;48.102;11.620;2022-12-18T03:56:58;4.63;;;4.30;;
22388;SDS011;11362;48.102;11.620;2022-12-18T03:59:27;4.73;;;4.33;;
22388;SDS011;11362;48.102;11.620;2022-12-18T04:01:55;4.67;;;4.37;;
22388;SDS011;11362;48.102;11.620;2022-12-18T04:04:23;4.93;;;4.53;;
22388;SDS011;11362;48.102;11.620;2022-12-18T04:06:50;4.53;;;4.13;;
22388;SDS011;11362;48.102;11.620;2022-12-18T04:09:17;4.50;;;4.20;;
22388;SDS011;11362;48.102;11.620;2022-12-18T04:11:44;4.80;;;4.40;;
22388;SDS011;11362;48.102;11.620;2022-12-18T04:14:11;4.30;;;4.00;;
22388;SDS011;11362;48.102;11.620;2022-12-18T04:16:36;4.30;;;4.00;;
22388;SDS011;11362;48.102;11.620;2022-12-18T04:19:02;4.60;;;4.20;;
22388;SDS011;11362;48.102;11.620;2022-12-18T04:21:27;4.67;;;4.30;;
22388;SDS011;11362;48.102;11.620;2022-12-18T04:23:53;4.23;;;3.93;;
22388;SDS011;11362;48.102;11.620;2022-12-18T04:26:18;4.83;;;4.43;;
22388;SDS011;11362;48.102;11.620;2022-12-18T04:28:43;4.77;;;4.37;;
22388;SDS011;11362;48.102;11.620;2022-12-18T04:31:09;4.93;;;4.53;;
22388;SDS011;11362;48.102;11.620;2022-12-18T04:33:34;4.17;;;3.87;;
22388;SDS011;11362;48.102;11.620;2022-12-18T04:35:59;5.07;;;4.33;;
22388;SDS011;11362;48.102;11.620;2022-12-18T04:38:25;4.13;;;3.83;;
22388;SDS011;11362;48.102;11.620;2022-12-18T04:40:50;4.30;;;3.90;;
22388;SDS011;11362;48.102;11.620;2022-12-18T04:43:15;4.53;;;4.13;;
22388;SDS011;11362;48.102;11.620;2022-12-18T04:45:41;4.67;;;4.27;;
22388;SDS011;11362;48.102;11.620;2022-12-18T04:48:06;4.80;;;4.40;;
22388;SDS011;11362;48.102;11.620;2022-12-18T04:50:31;5.13;;;4.73;;
22388;SDS011;11362;48.102;11.620;2022-12-18T04:52:57;4.87;;;4.50;;
22388;SDS011;11362;48.102;11.620;2022-12-18T04:55:25;4.30;;;3.90;;
22388;SDS011;11362;48.102;11.620;2022-12-18T04:57:51;4.20;;;3.90;;
22388;SDS011;11362;48.102;11.620;2022-12-18T05:00:16;4.20;;;3.90;;
22388;SDS011;11362;48.102;11.620;2022-12-18T05:02:42;4.47;;;4.17;;
22388;SDS011;11362;48.102;11.620;2022-12-18T05:05:07;4.40;;;4.10;;
22388;SDS011;11362;48.102;11.620;2022-12-18T05:07:33;4.27;;;3.97;;
22388;SDS011;11362;48.102;11.620;2022-12-18T05:09:58;4.27;;;3.97;;
22388;SDS011;11362;48.102;11.620;2022-12-18T05:12:23;4.00;;;3.73;;
22388;SDS011;11362;48.102;11.620;2022-12-18T05:14:49;4.27;;;3.97;;
22388;SDS011;11362;48.102;11.620;2022-12-18T05:17:14;4.10;;;3.80;;
22388;SDS011;11362;48.102;11.620;2022-12-18T05:19:39;5.70;;;4.03;;
22388;SDS011;11362;48.102;11.620;2022-12-18T05:22:08;4.20;;;3.90;;
22388;SDS011;11362;48.102;11.620;2022-12-18T05:24:34;4.53;;;4.23;;
22388;SDS011;11362;48.102;11.620;2022-12-18T05:26:59;4.57;;;4.27;;
22388;SDS011;11362;48.102;11.620;2022-12-18T05:29:25;3.97;;;3.67;;
22388;SDS011;11362;48.102;11.620;2022-12-18T05:31:50;4.37;;;4.07;;
22388;SDS011;11362;48.102;11.620;2022-12-18T05:34:15;4.30;;;3.93;;
22388;SDS011;11362;48.102;11.620;2022-12-18T05:36:41;4.03;;;3.73;;
22388;SDS011;11362;48.102;11.620;2022-12-18T05:39:06;4.20;;;3.90;;
22388;SDS011;11362;48.102;11.620;2022-12-18T05:41:31;4.40;;;4.10;;
22388;SDS011;11362;48.102;11.620;2022-12-18T05:43:57;4.20;;;3.90;;
22388;SDS011;11362;48.102;11.620;2022-12-18T05:46:23;4.00;;;3.77;;
22388;SDS011;11362;48.102;11.620;2022-12-18T05:48:48;4.50;;;4.20;;
22388;SDS011;11362;48.102;11.620;2022-12-18T05:51:15;4.43;;;4.03;;
22388;SDS011;11362;48.102;11.620;2022-12-18T05:53:41;4.17;;;3.87;;
22388;SDS011;11362;48.102;11.620;2022-12-18T05:56:12;4.30;;;3.93;;
22388;SDS011;11362;48.102;11.620;2022-12-18T05:58:38;4.40;;;4.10;;
22388;SDS011;11362;48.102;11.620;2022-12-18T06:01:08;3.90;;;3.70;;
22388;SDS011;11362;48.102;11.620;2022-12-18T06:03:44;4.00;;;3.80;;
22388;SDS011;11362;48.102;11.620;2022-12-18T06:06:17;3.77;;;3.47;;
22388;SDS011;11362;48.102;11.620;2022-12-18T06:08:45;3.97;;;3.67;;
22388;SDS011;11362;48.102;11.620;2022-12-18T06:11:10;3.50;;;3.30;;
22388;SDS011;11362;48.102;11.620;2022-12-18T06:13:36;4.20;;;3.90;;
22388;SDS011;11362;48.102;11.620;2022-12-18T06:16:03;3.83;;;3.63;;
22388;SDS011;11362;48.102;11.620;2022-12-18T06:18:32;3.60;;;3.40;;
22388;SDS011;11362;48.102;11.620;2022-12-18T06:20:58;3.80;;;3.50;;
22388;SDS011;11362;48.102;11.620;2022-12-18T06:23:24;4.10;;;3.80;;
22388;SDS011;11362;48.102;11.620;2022-12-18T06:25:50;4.33;;;3.93;;
22388;SDS011;11362;48.102;11.620;2022-12-18T06:28:15;5.73;;;4.37;;
22388;SDS011;11362;48.102;11.620;2022-12-18T06:30:44;4.17;;;3.87;;
22388;SDS011;11362;48.102;11.620;2022-12-18T06:33:11;3.93;;;3.63;;
22388;SDS011;11362;48.102;11.620;2022-12-18T06:35:36;3.80;;;3.50;;
22388;SDS011;11362;48.102;11.620;2022-12-18T06:38:02;4.20;;;3.90;;
22388;SDS011;11362;48.102;11.620;2022-12-18T06:40:27;4.43;;;4.10;;
22388;SDS011;11362;48.102;11.620;2022-12-18T06:42:53;4.00;;;3.60;;
22388;SDS011;11362;48.102;11.620;2022-12-18T06:45:18;3.97;;;3.60;;
22388;SDS011;11362;48.102;11.620;2022-12-18T06:47:43;3.73;;;3.50;;
22388;SDS011;11362;48.102;11.620;2022-12-18T06:50:09;4.10;;;3.80;;
22388;SDS011;11362;48.102;11.620;2022-12-18T06:52:34;4.10;;;3.70;;
22388;SDS011;11362;48.102;11.620;2022-12-18T06:54:59;4.03;;;3.73;;
22388;SDS011;11362;48.102;11.620;2022-12-18T06:57:25;3.90;;;3.60;;
22388;SDS011;11362;48.102;11.620;2022-12-18T06:59:50;4.00;;;3.70;;
22388;SDS011;11362;48.102;11.620;2022-12-18T07:02:15;3.90;;;3.70;;
22388;SDS011;11362;48.102;11.620;2022-12-18T07:04:41;3.80;;;3.50;;
22388;SDS011;11362;48.102;11.620;2022-12-18T07:07:06;3.70;;;3.40;;
22388;SDS011;11362;48.102;11.620;2022-12-18T07:09:31;4.20;;;3.90;;
22388;SDS011;11362;48.102;11.620;2022-12-18T07:11:57;3.60;;;3.40;;
22388;SDS011;11362;48.102;11.620;2022-12-18T07:14:22;3.67;;;3.37;;
22388;SDS011;11362;48.102;11.620;2022-12-18T07:16:48;4.30;;;4.00;;
22388;SDS011;11362;48.102;11.620;2022-12-18T07:19:13;4.10;;;3.80;;
22388;SDS011;11362;48.102;11.620;2022-12-18T07:21:38;3.90;;;3.70;;
22388;SDS011;11362;48.102;11.620;2022-12-18T07:24:04;3.57;;;3.37;;
22388;SDS011;11362;48.102;11.620;2022-12-18T07:26:29;3.87;;;3.57;;
22388;SDS011;11362;48.102;11.620;2022-12-18T07:28:55;3.70;;;3.40;;
22388;SDS011;11362;48.102;11.620;2022-12-18T07:31:21;3.33;;;3.13;;
22388;SDS011;11362;48.102;11.620;2022-12-18T07:33:46;4.00;;;3.70;;
22388;SDS011;11362;48.102;11.620;2022-12-18T07:36:12;3.90;;;3.60;;
22388;SDS011;11362;48.102;11.620;2022-12-18T07:38:38;4.17;;;3.87;;
22388;SDS011;11362;48.102;11.620;2022-12-18T07:41:05;3.67;;;3.47;;
22388;SDS011;11362;48.102;11.620;2022-12-18T07:43:32;4.73;;;4.33;;
22388;SDS011;11362;48.102;11.620;2022-12-18T07:45:58;3.97;;;3.67;;
22388;SDS011;11362;48.102;11.620;2022-12-18T07:48:24;3.70;;;3.50;;
22388;SDS011;11362;48.102;11.620;2022-12-18T07:50:49;4.13;;;3.83;;
22388;SDS011;11362;48.102;11.620;2022-12-18T07:53:15;3.50;;;3.30;;
22388;SDS011;11362;48.102;11.620;2022-12-18T07:55:40;4.20;;;3.90;;
22388;SDS011;11362;48.102;11.620;2022-12-18T07:58:06;6.63;;;3.73;;
22388;SDS011;11362;48.102;11.620;2022-12-18T08:00:33;4.17;;;3.63;;
22388;SDS011;11362;48.102;11.620;2022-12-18T08:02:58;7.73;;;4.60;;
22388;SDS011;11362;48.102;11.620;2022-12-18T08:05:24;15.60;;;4.70;;
22388;SDS011;11362;48.102;11.620;2022-12-18T08:07:49;20.03;;;4.77;;
22388;SDS011;11362;48.102;11.620;2022-12-18T08:10:14;7.07;;;4.33;;
22388;SDS011;11362;48.102;11.620;2022-12-18T08:12:40;11.90;;;4.37;;
22388;SDS011;11362;48.102;11.620;2022-12-18T08:15:05;12.77;;;4.90;;
22388;SDS011;11362;48.102;11.620;2022-12-18T08:17:31;12.47;;;4.90;;
22388;SDS011;11362;48.102;11.620;2022-12-18T08:19:56;11.33;;;4.43;;
22388;SDS011;11362;48.102;11.620;2022-12-18T08:22:22;13.40;;;4.33;;
22388;SDS011;11362;48.102;11.620;2022-12-18T08:24:47;10.33;;;6.17;;
22388;SDS011;11362;48.102;11.620;2022-12-18T08:27:12;14.73;;;4.93;;
22388;SDS011;11362;48.102;11.620;2022-12-18T08:29:38;13.00;;;5.13;;
22388;SDS011;11362;48.102;11.620;2022-12-18T08:32:03;16.53;;;5.20;;
22388;SDS011;11362;48.102;11.620;2022-12-18T08:34:28;18.13;;;5.47;;
22388;SDS011;11362;48.102;11.620;2022-12-18T08:36:54;16.20;;;5.07;;
22388;SDS011;11362;48.102;11.620;2022-12-18T08:39:19;16.20;;;4.93;;
22388;SDS011;11362;48.102;11.620;2022-12-18T08:41:45;27.63;;;6.33;;
22388;SDS011;11362;48.102;11.620;2022-12-18T08:44:10;20.57;;;5.37;;
22388;SDS011;11362;48.102;11.620;2022-12-18T08:46:36;17.93;;;5.43;;
22388;SDS011;11362;48.102;11.620;2022-12-18T08:49:03;19.70;;;5.90;;
22388;SDS011;11362;48.102;11.620;2022-12-18T08:51:30;14.50;;;5.30;;
22388;SDS011;11362;48.102;11.620;2022-12-18T08:53:55;15.07;;;5.00;;
22388;SDS011;11362;48.102;11.620;2022-12-18T08:56:20;16.23;;;6.10;;
22388;SDS011;11362;48.102;11.620;2022-12-18T08:58:45;15.90;;;6.03;;
22388;SDS011;11362;48.102;11.620;2022-12-18T09:01:11;23.53;;;6.50;;
22388;SDS011;11362;48.102;11.620;2022-12-18T09:03:38;13.33;;;8.10;;
22388;SDS011;11362;48.102;11.620;2022-12-18T09:06:04;15.30;;;8.83;;
22388;SDS011;11362;48.102;11.620;2022-12-18T09:08:30;13.73;;;7.00;;
22388;SDS011;11362;48.102;11.620;2022-12-18T09:10:55;15.97;;;7.20;;
22388;SDS011;11362;48.102;11.620;2022-12-18T09:13:21;14.03;;;6.40;;
22388;SDS011;11362;48.102;11.620;2022-12-18T09:15:48;10.20;;;6.17;;
22388;SDS011;11362;48.102;11.620;2022-12-18T09:18:15;12.30;;;6.40;;
22388;SDS011;11362;48.102;11.620;2022-12-18T09:20:43;12.73;;;6.07;;
22388;SDS011;11362;48.102;11.620;2022-12-18T09:23:08;15.03;;;5.93;;
22388;SDS011;11362;48.102;11.620;2022-12-18T09:25:35;12.87;;;5.63;;
22388;SDS011;11362;48.102;11.620;2022-12-18T09:28:05;15.43;;;6.13;;
22388;SDS011;11362;48.102;11.620;2022-12-18T09:30:38;11.37;;;5.70;;
22388;SDS011;11362;48.102;11.620;2022-12-18T09:33:04;12.67;;;5.50;;
22388;SDS011;11362;48.102;11.620;2022-12-18T09:35:30;21.87;;;8.23;;
22388;SDS011;11362;48.102;11.620;2022-12-18T09:37:55;23.10;;;19.80;;
22388;SDS011;11362;48.102;11.620;2022-12-18T09:40:21;35.10;;;28.80;;
22388;SDS011;11362;48.102;11.620;2022-12-18T09:42:52;75.43;;;60.90;;
22388;SDS011;11362;48.102;11.620;2022-12-18T09:45:21;107.80;;;95.07;;
22388;SDS011;11362;48.102;11.620;2022-12-18T09:47:48;84.13;;;69.93;;
22388;SDS011;11362;48.102;11.620;2022-12-18T09:50:27;68.20;;;59.40;;
22388;SDS011;11362;48.102;11.620;2022-12-18T09:52:56;64.30;;;54.90;;
22388;SDS011;11362;48.102;11.620;2022-12-18T09:55:28;68.13;;;55.43;;
22388;SDS011;11362;48.102;11.620;2022-12-18T09:58:04;61.17;;;54.03;;
22388;SDS011;11362;48.102;11.620;2022-12-18T10:00:32;56.07;;;48.43;;
22388;SDS011;11362;48.102;11.620;2022-12-18T10:03:01;58.40;;;48.17;;
22388;SDS011;11362;48.102;11.620;2022-12-18T10:05:37;54.20;;;44.23;;
22388;SDS011;11362;48.102;11.620;2022-12-18T10:08:13;52.80;;;41.63;;
22388;SDS011;11362;48.102;11.620;2022-12-18T10:13:53;47.90;;;36.47;;
22388;SDS011;11362;48.102;11.620;2022-12-18T10:16:29;50.50;;;36.23;;
22388;SDS011;11362;48.102;11.620;2022-12-18T10:19:17;44.63;;;35.60;;
22388;SDS011;11362;48.102;11.620;2022-12-18T10:21:58;46.10;;;35.57;;
22388;SDS011;11362;48.102;11.620;2022-12-18T10:24:43;41.13;;;31.33;;
22388;SDS011;11362;48.102;11.620;2022-12-18T10:27:21;38.60;;;30.10;;
22388;SDS011;11362;48.102;11.620;2022-12-18T10:29:48;34.13;;;26.43;;
22388;SDS011;11362;48.102;11.620;2022-12-18T10:32:21;36.63;;;25.93;;
22388;SDS011;11362;48.102;11.620;2022-12-18T10:34:49;28.33;;;21.67;;
22388;SDS011;11362;48.102;11.620;2022-12-18T10:37:16;26.93;;;21.13;;
22388;SDS011;11362;48.102;11.620;2022-12-18T10:39:44;24.67;;;19.67;;
22388;SDS011;11362;48.102;11.620;2022-12-18T10:42:16;28.57;;;20.17;;
22388;SDS011;11362;48.102;11.620;2022-12-18T10:44:43;28.77;;;19.43;;
22388;SDS011;11362;48.102;11.620;2022-12-18T10:47:11;24.10;;;17.57;;
22388;SDS011;11362;48.102;11.620;2022-12-18T10:49:42;20.10;;;17.30;;
22388;SDS011;11362;48.102;11.620;2022-12-18T10:52:18;21.00;;;15.60;;
22388;SDS011;11362;48.102;11.620;2022-12-18T10:54:51;17.27;;;15.30;;
22388;SDS011;11362;48.102;11.620;2022-12-18T10:59:54;18.33;;;15.27;;
22388;SDS011;11362;48.102;11.620;2022-12-18T11:02:26;16.60;;;13.60;;
22388;SDS011;11362;48.102;11.620;2022-12-18T11:04:57;15.57;;;13.63;;
22388;SDS011;11362;48.102;11.620;2022-12-18T11:07:23;15.93;;;11.90;;
22388;SDS011;11362;48.102;11.620;2022-12-18T11:09:59;16.83;;;12.13;;
22388;SDS011;11362;48.102;11.620;2022-12-18T11:12:28;22.83;;;13.40;;
22388;SDS011;11362;48.102;11.620;2022-12-18T11:14:57;14.80;;;11.07;;
22388;SDS011;11362;48.102;11.620;2022-12-18T11:20:23;23.03;;;11.37;;
22388;SDS011;11362;48.102;11.620;2022-12-18T11:23:21;21.73;;;11.60;;
22388;SDS011;11362;48.102;11.620;2022-12-18T11:25:39;14.53;;;10.03;;
22388;SDS011;11362;48.102;11.620;2022-12-18T11:33:52;11.80;;;8.80;;
22388;SDS011;11362;48.102;11.620;2022-12-18T11:36:23;14.67;;;9.27;;
22388;SDS011;11362;48.102;11.620;2022-12-18T11:38:49;19.83;;;9.27;;
22388;SDS011;11362;48.102;11.620;2022-12-18T11:41:38;14.53;;;8.27;;
22388;SDS011;11362;48.102;11.620;2022-12-18T11:44:26;13.43;;;8.67;;
22388;SDS011;11362;48.102;11.620;2022-12-18T11:47:00;14.80;;;8.40;;
22388;SDS011;11362;48.102;11.620;2022-12-18T11:49:35;13.17;;;8.20;;
22388;SDS011;11362;48.102;11.620;2022-12-18T11:52:18;10.47;;;7.87;;
22388;SDS011;11362;48.102;11.620;2022-12-18T11:54:51;10.67;;;7.43;;
22388;SDS011;11362;48.102;11.620;2022-12-18T11:57:32;9.63;;;7.43;;
22388;SDS011;11362;48.102;11.620;2022-12-18T12:00:11;36.27;;;29.33;;
22388;SDS011;11362;48.102;11.620;2022-12-18T12:02:48;450.07;;;275.60;;
22388;SDS011;11362;48.102;11.620;2022-12-18T12:11:52;1103.23;;;683.07;;
22388;SDS011;11362;48.102;11.620;2022-12-18T12:25:21;269.83;;;140.60;;
22388;SDS011;11362;48.102;11.620;2022-12-18T12:28:05;433.20;;;239.27;;
22388;SDS011;11362;48.102;11.620;2022-12-18T12:33:33;443.30;;;241.57;;
22388;SDS011;11362;48.102;11.620;2022-12-18T12:36:29;422.40;;;233.60;;
22388;SDS011;11362;48.102;11.620;2022-12-18T12:39:11;418.80;;;225.33;;
22388;SDS011;11362;48.102;11.620;2022-12-18T12:41:42;410.03;;;222.27;;
22388;SDS011;11362;48.102;11.620;2022-12-18T12:44:24;405.77;;;211.97;;
22388;SDS011;11362;48.102;11.620;2022-12-18T12:46:55;398.60;;;206.93;;
22388;SDS011;11362;48.102;11.620;2022-12-18T12:49:26;389.07;;;201.43;;
22388;SDS011;11362;48.102;11.620;2022-12-18T12:51:58;378.03;;;197.23;;
22388;SDS011;11362;48.102;11.620;2022-12-18T12:54:30;359.20;;;187.10;;
22388;SDS011;11362;48.102;11.620;2022-12-18T12:57:00;362.87;;;189.97;;
22388;SDS011;11362;48.102;11.620;2022-12-18T12:59:45;349.80;;;183.27;;
22388;SDS011;11362;48.102;11.620;2022-12-18T13:04:47;338.17;;;169.17;;
22388;SDS011;11362;48.102;11.620;2022-12-18T13:15:41;298.20;;;148.63;;
22388;SDS011;11362;48.102;11.620;2022-12-18T13:20:40;266.90;;;137.50;;
22388;SDS011;11362;48.102;11.620;2022-12-18T13:25:55;245.87;;;121.40;;
22388;SDS011;11362;48.102;11.620;2022-12-18T13:31:09;231.20;;;115.73;;
22388;SDS011;11362;48.102;11.620;2022-12-18T13:33:42;225.10;;;114.13;;
22388;SDS011;11362;48.102;11.620;2022-12-18T13:36:31;220.77;;;108.50;;
22388;SDS011;11362;48.102;11.620;2022-12-18T13:41:45;206.00;;;101.63;;
22388;SDS011;11362;48.102;11.620;2022-12-18T13:46:50;191.83;;;93.30;;
22388;SDS011;11362;48.102;11.620;2022-12-18T13:49:21;185.43;;;93.37;;
22388;SDS011;11362;48.102;11.620;2022-12-18T13:51:50;285.03;;;125.90;;
22388;SDS011;11362;48.102;11.620;2022-12-18T13:54:35;364.13;;;158.87;;
22388;SDS011;11362;48.102;11.620;2022-12-18T13:57:02;375.33;;;164.57;;
22388;SDS011;11362;48.102;11.620;2022-12-18T13:59:37;343.23;;;141.63;;
22388;SDS011;11362;48.102;11.620;2022-12-18T14:02:16;325.90;;;145.70;;
22388;SDS011;11362;48.102;11.620;2022-12-18T14:04:46;321.40;;;142.87;;
22388;SDS011;11362;48.102;11.620;2022-12-18T14:09:44;285.20;;;126.53;;
22388;SDS011;11362;48.102;11.620;2022-12-18T14:12:16;274.80;;;122.17;;
22388;SDS011;11362;48.102;11.620;2022-12-18T14:14:44;270.00;;;113.10;;
22388;SDS011;11362;48.102;11.620;2022-12-18T14:17:11;248.47;;;109.00;;
22388;SDS011;11362;48.102;11.620;2022-12-18T14:19:37;239.57;;;105.23;;
22388;SDS011;11362;48.102;11.620;2022-12-18T14:22:12;227.87;;;101.50;;
22388;SDS011;11362;48.102;11.620;2022-12-18T14:24:40;213.77;;;97.43;;
22388;SDS011;11362;48.102;11.620;2022-12-18T14:27:17;205.17;;;95.77;;
22388;SDS011;11362;48.102;11.620;2022-12-18T14:29:45;201.43;;;93.70;;
22388;SDS011;11362;48.102;11.620;2022-12-18T14:34:38;174.83;;;84.53;;
22388;SDS011;11362;48.102;11.620;2022-12-18T14:37:04;174.50;;;84.40;;
22388;SDS011;11362;48.102;11.620;2022-12-18T14:39:29;169.50;;;81.03;;
22388;SDS011;11362;48.102;11.620;2022-12-18T14:41:55;173.43;;;83.03;;
22388;SDS011;11362;48.102;11.620;2022-12-18T14:44:20;177.07;;;82.23;;
22388;SDS011;11362;48.102;11.620;2022-12-18T14:46:45;173.73;;;81.40;;
22388;SDS011;11362;48.102;11.620;2022-12-18T14:51:57;152.53;;;72.53;;
22388;SDS011;11362;48.102;11.620;2022-12-18T14:54:31;158.63;;;68.20;;
22388;SDS011;11362;48.102;11.620;2022-12-18T14:59:29;142.33;;;62.33;;
22388;SDS011;11362;48.102;11.620;2022-12-18T15:02:00;139.73;;;59.47;;
22388;SDS011;11362;48.102;11.620;2022-12-18T15:04:36;127.53;;;55.90;;
22388;SDS011;11362;48.102;11.620;2022-12-18T15:07:05;135.20;;;56.87;;
22388;SDS011;11362;48.102;11.620;2022-12-18T15:09:34;123.80;;;53.77;;
22388;SDS011;11362;48.102;11.620;2022-12-18T15:12:01;118.07;;;51.53;;
22388;SDS011;11362;48.102;11.620;2022-12-18T15:14:40;116.17;;;51.37;;
22388;SDS011;11362;48.102;11.620;2022-12-18T15:17:13;113.33;;;49.97;;
22388;SDS011;11362;48.102;11.620;2022-12-18T15:19:47;107.33;;;47.67;;
22388;SDS011;11362;48.102;11.620;2022-12-18T15:22:19;105.87;;;49.60;;
22388;SDS011;11362;48.102;11.620;2022-12-18T15:24:53;97.43;;;47.00;;
22388;SDS011;11362;48.102;11.620;2022-12-18T15:27:20;98.07;;;43.73;;
22388;SDS011;11362;48.102;11.620;2022-12-18T15:32:31;93.73;;;43.07;;
22388;SDS011;11362;48.102;11.620;2022-12-18T15:37:34;86.40;;;43.07;;
22388;SDS011;11362;48.102;11.620;2022-12-18T15:39:59;88.57;;;43.50;;
22388;SDS011;11362;48.102;11.620;2022-12-18T15:42:25;88.53;;;41.47;;
22388;SDS011;11362;48.102;11.620;2022-12-18T15:44:50;87.33;;;40.57;;
22388;SDS011;11362;48.102;11.620;2022-12-18T15:47:15;82.03;;;39.63;;
22388;SDS011;11362;48.102;11.620;2022-12-18T15:49:41;71.57;;;36.67;;
22388;SDS011;11362;48.102;11.620;2022-12-18T15:52:08;75.83;;;38.00;;
22388;SDS011;11362;48.102;11.620;2022-12-18T15:54:38;68.63;;;36.07;;
22388;SDS011;11362;48.102;11.620;2022-12-18T15:57:04;71.40;;;35.30;;
22388;SDS011;11362;48.102;11.620;2022-12-18T15:59:29;31.10;;;22.17;;
22388;SDS011;11362;48.102;11.620;2022-12-18T16:01:54;40.47;;;23.00;;
22388;SDS011;11362;48.102;11.620;2022-12-18T16:04:20;46.20;;;24.83;;
22388;SDS011;11362;48.102;11.620;2022-12-18T16:06:47;36.20;;;22.93;;